sensor_id;sensor_type;location;lat;lon;timestamp;P1;durP1;ratioP1;P2;durP2;ratioP2
56242;SDS011;42155;53.096;23.226;2024-02-14T00:00:23;12.55;;;6.28;;
56242;SDS011;42155;53.096;23.226;2024-02-14T00:02:23;15.90;;;6.72;;
56242;SDS011;42155;53.096;23.226;2024-02-14T00:04:24;12.20;;;6.15;;
56242;SDS011;42155;53.096;23.226;2024-02-14T00:06:24;16.38;;;6.60;;
56242;SDS011;42155;53.096;23.226;2024-02-14T00:08:25;16.85;;;6.97;;
56242;SDS011;42155;53.096;23.226;2024-02-14T00:10:25;21.02;;;7.30;;
56242;SDS011;42155;53.096;23.226;2024-02-14T00:12:25;20.90;;;7.63;;
56242;SDS011;42155;53.096;23.226;2024-02-14T00:14:26;13.65;;;6.70;;
56242;SDS011;42155;53.096;23.226;2024-02-14T00:16:27;16.92;;;6.72;;
56242;SDS011;42155;53.096;23.226;2024-02-14T00:18:28;18.42;;;7.03;;
56242;SDS011;42155;53.096;23.226;2024-02-14T00:20:29;15.40;;;6.25;;
56242;SDS011;42155;53.096;23.226;2024-02-14T00:22:29;12.13;;;6.57;;
56242;SDS011;42155;53.096;23.226;2024-02-14T00:24:30;13.13;;;6.00;;
56242;SDS011;42155;53.096;23.226;2024-02-14T00:26:31;14.18;;;6.47;;
56242;SDS011;42155;53.096;23.226;2024-02-14T00:28:31;13.35;;;6.88;;
56242;SDS011;42155;53.096;23.226;2024-02-14T00:30:32;15.05;;;6.88;;
56242;SDS011;42155;53.096;23.226;2024-02-14T00:32:32;12.32;;;5.93;;
56242;SDS011;42155;53.096;23.226;2024-02-14T00:34:32;11.95;;;6.18;;
56242;SDS011;42155;53.096;23.226;2024-02-14T00:36:33;12.23;;;6.45;;
56242;SDS011;42155;53.096;23.226;2024-02-14T00:38:33;13.13;;;5.78;;
56242;SDS011;42155;53.096;23.226;2024-02-14T00:40:34;10.88;;;5.78;;
56242;SDS011;42155;53.096;23.226;2024-02-14T00:42:34;12.93;;;6.47;;
56242;SDS011;42155;53.096;23.226;2024-02-14T00:44:34;12.93;;;5.82;;
56242;SDS011;42155;53.096;23.226;2024-02-14T00:46:35;14.77;;;6.22;;
56242;SDS011;42155;53.096;23.226;2024-02-14T00:48:35;14.60;;;6.22;;
56242;SDS011;42155;53.096;23.226;2024-02-14T00:50:36;15.50;;;6.28;;
56242;SDS011;42155;53.096;23.226;2024-02-14T00:52:36;13.88;;;5.95;;
56242;SDS011;42155;53.096;23.226;2024-02-14T00:54:37;11.40;;;5.18;;
56242;SDS011;42155;53.096;23.226;2024-02-14T00:56:37;16.55;;;6.20;;
56242;SDS011;42155;53.096;23.226;2024-02-14T00:58:38;13.88;;;5.32;;
56242;SDS011;42155;53.096;23.226;2024-02-14T01:00:38;11.35;;;5.18;;
56242;SDS011;42155;53.096;23.226;2024-02-14T01:02:38;12.82;;;5.30;;
56242;SDS011;42155;53.096;23.226;2024-02-14T01:04:39;14.20;;;5.70;;
56242;SDS011;42155;53.096;23.226;2024-02-14T01:06:39;10.02;;;5.43;;
56242;SDS011;42155;53.096;23.226;2024-02-14T01:08:40;14.40;;;5.80;;
56242;SDS011;42155;53.096;23.226;2024-02-14T01:10:40;15.00;;;6.07;;
56242;SDS011;42155;53.096;23.226;2024-02-14T01:12:40;13.48;;;6.53;;
56242;SDS011;42155;53.096;23.226;2024-02-14T01:14:41;13.50;;;6.40;;
56242;SDS011;42155;53.096;23.226;2024-02-14T01:16:42;13.10;;;5.90;;
56242;SDS011;42155;53.096;23.226;2024-02-14T01:18:43;13.00;;;6.18;;
56242;SDS011;42155;53.096;23.226;2024-02-14T01:20:43;12.32;;;6.30;;
56242;SDS011;42155;53.096;23.226;2024-02-14T01:22:44;16.13;;;5.60;;
56242;SDS011;42155;53.096;23.226;2024-02-14T01:24:44;13.27;;;5.80;;
56242;SDS011;42155;53.096;23.226;2024-02-14T01:26:44;16.38;;;6.47;;
56242;SDS011;42155;53.096;23.226;2024-02-14T01:28:45;11.93;;;5.80;;
56242;SDS011;42155;53.096;23.226;2024-02-14T01:30:45;14.07;;;5.65;;
56242;SDS011;42155;53.096;23.226;2024-02-14T01:32:45;10.38;;;5.47;;
56242;SDS011;42155;53.096;23.226;2024-02-14T01:34:46;15.10;;;6.15;;
56242;SDS011;42155;53.096;23.226;2024-02-14T01:36:47;16.20;;;5.85;;
56242;SDS011;42155;53.096;23.226;2024-02-14T01:38:48;12.85;;;5.85;;
56242;SDS011;42155;53.096;23.226;2024-02-14T01:40:48;11.07;;;5.22;;
56242;SDS011;42155;53.096;23.226;2024-02-14T01:42:49;12.35;;;5.68;;
56242;SDS011;42155;53.096;23.226;2024-02-14T01:44:52;11.55;;;5.40;;
56242;SDS011;42155;53.096;23.226;2024-02-14T01:46:53;12.00;;;5.72;;
56242;SDS011;42155;53.096;23.226;2024-02-14T01:48:53;10.38;;;4.95;;
56242;SDS011;42155;53.096;23.226;2024-02-14T01:50:54;13.05;;;6.00;;
56242;SDS011;42155;53.096;23.226;2024-02-14T01:52:55;12.85;;;5.93;;
56242;SDS011;42155;53.096;23.226;2024-02-14T01:54:58;17.45;;;6.25;;
56242;SDS011;42155;53.096;23.226;2024-02-14T01:56:59;12.68;;;5.60;;
56242;SDS011;42155;53.096;23.226;2024-02-14T01:59:01;14.63;;;5.57;;
56242;SDS011;42155;53.096;23.226;2024-02-14T02:01:01;12.32;;;5.45;;
56242;SDS011;42155;53.096;23.226;2024-02-14T02:03:02;14.70;;;5.43;;
56242;SDS011;42155;53.096;23.226;2024-02-14T02:05:03;14.60;;;5.93;;
56242;SDS011;42155;53.096;23.226;2024-02-14T02:07:04;11.38;;;5.20;;
56242;SDS011;42155;53.096;23.226;2024-02-14T02:09:04;13.85;;;5.38;;
56242;SDS011;42155;53.096;23.226;2024-02-14T02:11:05;14.38;;;6.13;;
56242;SDS011;42155;53.096;23.226;2024-02-14T02:13:05;10.98;;;5.20;;
56242;SDS011;42155;53.096;23.226;2024-02-14T02:15:06;12.95;;;5.65;;
56242;SDS011;42155;53.096;23.226;2024-02-14T02:17:07;13.15;;;5.85;;
56242;SDS011;42155;53.096;23.226;2024-02-14T02:19:08;14.68;;;5.57;;
56242;SDS011;42155;53.096;23.226;2024-02-14T02:21:09;13.85;;;5.15;;
56242;SDS011;42155;53.096;23.226;2024-02-14T02:23:12;10.63;;;5.55;;
56242;SDS011;42155;53.096;23.226;2024-02-14T02:25:13;13.98;;;5.72;;
56242;SDS011;42155;53.096;23.226;2024-02-14T02:27:13;11.77;;;6.47;;
56242;SDS011;42155;53.096;23.226;2024-02-14T02:29:13;13.00;;;5.57;;
56242;SDS011;42155;53.096;23.226;2024-02-14T02:31:14;9.68;;;4.97;;
56242;SDS011;42155;53.096;23.226;2024-02-14T02:33:14;10.13;;;5.40;;
56242;SDS011;42155;53.096;23.226;2024-02-14T02:35:15;9.43;;;4.47;;
56242;SDS011;42155;53.096;23.226;2024-02-14T02:37:15;12.77;;;5.15;;
56242;SDS011;42155;53.096;23.226;2024-02-14T02:39:15;17.55;;;5.43;;
56242;SDS011;42155;53.096;23.226;2024-02-14T02:41:16;8.95;;;4.80;;
56242;SDS011;42155;53.096;23.226;2024-02-14T02:43:16;11.90;;;5.45;;
56242;SDS011;42155;53.096;23.226;2024-02-14T02:45:17;12.63;;;5.28;;
56242;SDS011;42155;53.096;23.226;2024-02-14T02:47:17;13.68;;;5.40;;
56242;SDS011;42155;53.096;23.226;2024-02-14T02:49:18;12.23;;;5.35;;
56242;SDS011;42155;53.096;23.226;2024-02-14T02:51:19;12.60;;;5.43;;
56242;SDS011;42155;53.096;23.226;2024-02-14T02:53:19;9.65;;;5.43;;
56242;SDS011;42155;53.096;23.226;2024-02-14T02:55:20;10.13;;;4.70;;
56242;SDS011;42155;53.096;23.226;2024-02-14T02:57:20;11.68;;;5.22;;
56242;SDS011;42155;53.096;23.226;2024-02-14T02:59:20;9.15;;;4.80;;
56242;SDS011;42155;53.096;23.226;2024-02-14T03:01:21;10.60;;;5.18;;
56242;SDS011;42155;53.096;23.226;2024-02-14T03:03:21;15.70;;;5.65;;
56242;SDS011;42155;53.096;23.226;2024-02-14T03:05:22;12.63;;;5.72;;
56242;SDS011;42155;53.096;23.226;2024-02-14T03:07:22;9.30;;;5.13;;
56242;SDS011;42155;53.096;23.226;2024-02-14T03:09:22;12.27;;;5.70;;
56242;SDS011;42155;53.096;23.226;2024-02-14T03:11:23;11.93;;;5.35;;
56242;SDS011;42155;53.096;23.226;2024-02-14T03:13:23;9.25;;;4.93;;
56242;SDS011;42155;53.096;23.226;2024-02-14T03:15:23;12.30;;;5.07;;
56242;SDS011;42155;53.096;23.226;2024-02-14T03:17:24;18.00;;;5.82;;
56242;SDS011;42155;53.096;23.226;2024-02-14T03:19:24;10.23;;;4.85;;
56242;SDS011;42155;53.096;23.226;2024-02-14T03:21:25;14.90;;;5.25;;
56242;SDS011;42155;53.096;23.226;2024-02-14T03:23:25;12.05;;;5.05;;
56242;SDS011;42155;53.096;23.226;2024-02-14T03:25:25;11.77;;;4.90;;
56242;SDS011;42155;53.096;23.226;2024-02-14T03:27:26;10.95;;;5.07;;
56242;SDS011;42155;53.096;23.226;2024-02-14T03:29:26;10.05;;;5.32;;
56242;SDS011;42155;53.096;23.226;2024-02-14T03:31:26;10.35;;;4.72;;
56242;SDS011;42155;53.096;23.226;2024-02-14T03:33:27;11.88;;;5.38;;
56242;SDS011;42155;53.096;23.226;2024-02-14T03:35:27;14.80;;;5.95;;
56242;SDS011;42155;53.096;23.226;2024-02-14T03:37:27;13.40;;;5.78;;
56242;SDS011;42155;53.096;23.226;2024-02-14T03:39:28;11.93;;;5.45;;
56242;SDS011;42155;53.096;23.226;2024-02-14T03:41:29;13.15;;;5.35;;
56242;SDS011;42155;53.096;23.226;2024-02-14T03:43:30;12.93;;;5.00;;
56242;SDS011;42155;53.096;23.226;2024-02-14T03:45:30;12.18;;;5.30;;
56242;SDS011;42155;53.096;23.226;2024-02-14T03:47:34;10.77;;;5.22;;
56242;SDS011;42155;53.096;23.226;2024-02-14T03:49:35;11.48;;;5.68;;
56242;SDS011;42155;53.096;23.226;2024-02-14T03:51:35;9.48;;;4.72;;
56242;SDS011;42155;53.096;23.226;2024-02-14T03:53:36;10.25;;;4.90;;
56242;SDS011;42155;53.096;23.226;2024-02-14T03:55:37;10.65;;;5.10;;
56242;SDS011;42155;53.096;23.226;2024-02-14T03:57:37;11.30;;;4.50;;
56242;SDS011;42155;53.096;23.226;2024-02-14T03:59:38;8.68;;;4.35;;
56242;SDS011;42155;53.096;23.226;2024-02-14T04:01:43;9.68;;;4.75;;
56242;SDS011;42155;53.096;23.226;2024-02-14T04:03:45;12.93;;;5.50;;
56242;SDS011;42155;53.096;23.226;2024-02-14T04:05:47;12.43;;;4.80;;
56242;SDS011;42155;53.096;23.226;2024-02-14T04:07:47;10.18;;;4.90;;
56242;SDS011;42155;53.096;23.226;2024-02-14T04:09:48;11.10;;;4.50;;
56242;SDS011;42155;53.096;23.226;2024-02-14T04:11:48;13.07;;;5.72;;
56242;SDS011;42155;53.096;23.226;2024-02-14T04:13:49;9.20;;;4.85;;
56242;SDS011;42155;53.096;23.226;2024-02-14T04:15:50;12.52;;;5.28;;
56242;SDS011;42155;53.096;23.226;2024-02-14T04:17:50;12.40;;;5.53;;
56242;SDS011;42155;53.096;23.226;2024-02-14T04:19:51;9.52;;;5.00;;
56242;SDS011;42155;53.096;23.226;2024-02-14T04:21:52;10.82;;;5.20;;
56242;SDS011;42155;53.096;23.226;2024-02-14T04:23:53;13.38;;;6.22;;
56242;SDS011;42155;53.096;23.226;2024-02-14T04:25:53;11.68;;;5.32;;
56242;SDS011;42155;53.096;23.226;2024-02-14T04:27:54;10.75;;;5.75;;
56242;SDS011;42155;53.096;23.226;2024-02-14T04:29:54;17.23;;;6.57;;
56242;SDS011;42155;53.096;23.226;2024-02-14T04:31:54;12.30;;;5.65;;
56242;SDS011;42155;53.096;23.226;2024-02-14T04:33:55;10.60;;;5.22;;
56242;SDS011;42155;53.096;23.226;2024-02-14T04:35:56;11.73;;;5.43;;
56242;SDS011;42155;53.096;23.226;2024-02-14T04:37:56;11.88;;;5.90;;
56242;SDS011;42155;53.096;23.226;2024-02-14T04:39:56;11.10;;;5.70;;
56242;SDS011;42155;53.096;23.226;2024-02-14T04:41:57;10.75;;;5.45;;
56242;SDS011;42155;53.096;23.226;2024-02-14T04:43:57;14.10;;;6.30;;
56242;SDS011;42155;53.096;23.226;2024-02-14T04:45:57;9.75;;;5.00;;
56242;SDS011;42155;53.096;23.226;2024-02-14T04:47:58;11.57;;;5.65;;
56242;SDS011;42155;53.096;23.226;2024-02-14T04:49:58;11.30;;;5.30;;
56242;SDS011;42155;53.096;23.226;2024-02-14T04:51:59;11.23;;;5.40;;
56242;SDS011;42155;53.096;23.226;2024-02-14T04:53:59;11.65;;;5.25;;
56242;SDS011;42155;53.096;23.226;2024-02-14T04:56:00;10.52;;;5.75;;
56242;SDS011;42155;53.096;23.226;2024-02-14T04:58:00;10.57;;;4.97;;
56242;SDS011;42155;53.096;23.226;2024-02-14T05:00:01;10.77;;;5.45;;
56242;SDS011;42155;53.096;23.226;2024-02-14T05:02:02;11.80;;;4.97;;
56242;SDS011;42155;53.096;23.226;2024-02-14T05:04:02;9.80;;;5.35;;
56242;SDS011;42155;53.096;23.226;2024-02-14T05:06:03;11.55;;;5.57;;
56242;SDS011;42155;53.096;23.226;2024-02-14T05:08:04;11.60;;;5.50;;
56242;SDS011;42155;53.096;23.226;2024-02-14T05:10:05;13.75;;;5.78;;
56242;SDS011;42155;53.096;23.226;2024-02-14T05:12:06;11.23;;;6.03;;
56242;SDS011;42155;53.096;23.226;2024-02-14T05:14:06;18.00;;;8.68;;
56242;SDS011;42155;53.096;23.226;2024-02-14T05:16:07;20.52;;;8.45;;
56242;SDS011;42155;53.096;23.226;2024-02-14T05:18:07;15.88;;;8.73;;
56242;SDS011;42155;53.096;23.226;2024-02-14T05:20:08;18.10;;;8.35;;
56242;SDS011;42155;53.096;23.226;2024-02-14T05:22:09;17.13;;;8.43;;
56242;SDS011;42155;53.096;23.226;2024-02-14T05:24:10;15.68;;;8.77;;
56242;SDS011;42155;53.096;23.226;2024-02-14T05:26:10;23.50;;;10.18;;
56242;SDS011;42155;53.096;23.226;2024-02-14T05:28:11;22.23;;;10.93;;
56242;SDS011;42155;53.096;23.226;2024-02-14T05:30:12;22.50;;;11.07;;
56242;SDS011;42155;53.096;23.226;2024-02-14T05:32:13;21.58;;;10.50;;
56242;SDS011;42155;53.096;23.226;2024-02-14T05:34:13;20.33;;;9.93;;
56242;SDS011;42155;53.096;23.226;2024-02-14T05:36:14;16.05;;;8.88;;
56242;SDS011;42155;53.096;23.226;2024-02-14T05:38:15;21.20;;;10.73;;
56242;SDS011;42155;53.096;23.226;2024-02-14T05:40:16;26.88;;;12.43;;
56242;SDS011;42155;53.096;23.226;2024-02-14T05:42:16;24.95;;;12.02;;
56242;SDS011;42155;53.096;23.226;2024-02-14T05:44:17;23.20;;;11.07;;
56242;SDS011;42155;53.096;23.226;2024-02-14T05:46:18;21.55;;;9.40;;
56242;SDS011;42155;53.096;23.226;2024-02-14T05:48:19;23.88;;;10.50;;
56242;SDS011;42155;53.096;23.226;2024-02-14T05:50:20;17.70;;;9.40;;
56242;SDS011;42155;53.096;23.226;2024-02-14T05:52:20;23.25;;;9.93;;
56242;SDS011;42155;53.096;23.226;2024-02-14T05:54:21;16.83;;;8.95;;
56242;SDS011;42155;53.096;23.226;2024-02-14T05:56:21;21.25;;;10.60;;
56242;SDS011;42155;53.096;23.226;2024-02-14T05:58:22;22.23;;;10.27;;
56242;SDS011;42155;53.096;23.226;2024-02-14T06:00:23;20.65;;;9.93;;
56242;SDS011;42155;53.096;23.226;2024-02-14T06:02:24;20.33;;;10.15;;
56242;SDS011;42155;53.096;23.226;2024-02-14T06:04:24;23.08;;;10.02;;
56242;SDS011;42155;53.096;23.226;2024-02-14T06:06:25;26.10;;;10.52;;
56242;SDS011;42155;53.096;23.226;2024-02-14T06:08:26;23.80;;;10.75;;
56242;SDS011;42155;53.096;23.226;2024-02-14T06:10:27;22.40;;;10.43;;
56242;SDS011;42155;53.096;23.226;2024-02-14T06:12:27;24.83;;;9.95;;
56242;SDS011;42155;53.096;23.226;2024-02-14T06:14:27;20.05;;;9.50;;
56242;SDS011;42155;53.096;23.226;2024-02-14T06:16:28;20.80;;;9.38;;
56242;SDS011;42155;53.096;23.226;2024-02-14T06:18:30;22.00;;;10.20;;
56242;SDS011;42155;53.096;23.226;2024-02-14T06:20:31;22.85;;;9.35;;
56242;SDS011;42155;53.096;23.226;2024-02-14T06:22:31;20.45;;;10.13;;
56242;SDS011;42155;53.096;23.226;2024-02-14T06:24:32;20.40;;;10.43;;
56242;SDS011;42155;53.096;23.226;2024-02-14T06:26:33;23.40;;;11.40;;
56242;SDS011;42155;53.096;23.226;2024-02-14T06:28:33;25.35;;;12.35;;
56242;SDS011;42155;53.096;23.226;2024-02-14T06:30:34;31.92;;;15.18;;
56242;SDS011;42155;53.096;23.226;2024-02-14T06:32:34;37.15;;;17.92;;
56242;SDS011;42155;53.096;23.226;2024-02-14T06:34:35;42.13;;;21.17;;
56242;SDS011;42155;53.096;23.226;2024-02-14T06:36:36;40.78;;;18.67;;
56242;SDS011;42155;53.096;23.226;2024-02-14T06:38:36;41.20;;;19.35;;
56242;SDS011;42155;53.096;23.226;2024-02-14T06:40:37;36.33;;;18.60;;
56242;SDS011;42155;53.096;23.226;2024-02-14T06:42:38;25.27;;;14.32;;
56242;SDS011;42155;53.096;23.226;2024-02-14T06:44:38;28.25;;;13.27;;
56242;SDS011;42155;53.096;23.226;2024-02-14T06:46:38;22.00;;;12.57;;
56242;SDS011;42155;53.096;23.226;2024-02-14T06:48:39;29.55;;;14.93;;
56242;SDS011;42155;53.096;23.226;2024-02-14T06:50:39;26.90;;;14.20;;
56242;SDS011;42155;53.096;23.226;2024-02-14T06:52:40;25.08;;;13.05;;
56242;SDS011;42155;53.096;23.226;2024-02-14T06:54:40;23.92;;;12.63;;
56242;SDS011;42155;53.096;23.226;2024-02-14T06:56:41;24.73;;;12.43;;
56242;SDS011;42155;53.096;23.226;2024-02-14T06:58:41;24.80;;;13.23;;
56242;SDS011;42155;53.096;23.226;2024-02-14T07:00:41;22.60;;;11.75;;
56242;SDS011;42155;53.096;23.226;2024-02-14T07:02:42;24.67;;;12.25;;
56242;SDS011;42155;53.096;23.226;2024-02-14T07:04:42;23.90;;;11.52;;
56242;SDS011;42155;53.096;23.226;2024-02-14T07:06:43;20.60;;;12.05;;
56242;SDS011;42155;53.096;23.226;2024-02-14T07:08:43;27.15;;;13.55;;
56242;SDS011;42155;53.096;23.226;2024-02-14T07:10:44;27.38;;;12.75;;
56242;SDS011;42155;53.096;23.226;2024-02-14T07:12:44;27.10;;;13.80;;
56242;SDS011;42155;53.096;23.226;2024-02-14T07:14:46;25.65;;;12.38;;
56242;SDS011;42155;53.096;23.226;2024-02-14T07:16:46;22.40;;;11.57;;
56242;SDS011;42155;53.096;23.226;2024-02-14T07:18:47;23.60;;;9.90;;
56242;SDS011;42155;53.096;23.226;2024-02-14T07:20:50;21.17;;;10.02;;
56242;SDS011;42155;53.096;23.226;2024-02-14T07:22:50;16.45;;;8.75;;
56242;SDS011;42155;53.096;23.226;2024-02-14T07:24:51;18.65;;;9.63;;
56242;SDS011;42155;53.096;23.226;2024-02-14T07:26:51;20.80;;;10.00;;
56242;SDS011;42155;53.096;23.226;2024-02-14T07:28:52;18.67;;;8.98;;
56242;SDS011;42155;53.096;23.226;2024-02-14T07:30:52;20.40;;;8.98;;
56242;SDS011;42155;53.096;23.226;2024-02-14T07:32:52;17.85;;;9.68;;
56242;SDS011;42155;53.096;23.226;2024-02-14T07:34:53;18.17;;;7.97;;
56242;SDS011;42155;53.096;23.226;2024-02-14T07:36:53;19.65;;;8.50;;
56242;SDS011;42155;53.096;23.226;2024-02-14T07:38:53;23.23;;;8.98;;
56242;SDS011;42155;53.096;23.226;2024-02-14T07:40:54;18.70;;;8.07;;
56242;SDS011;42155;53.096;23.226;2024-02-14T07:42:54;22.23;;;9.45;;
56242;SDS011;42155;53.096;23.226;2024-02-14T07:44:55;29.05;;;11.80;;
56242;SDS011;42155;53.096;23.226;2024-02-14T07:46:55;24.73;;;10.93;;
56242;SDS011;42155;53.096;23.226;2024-02-14T07:48:55;23.42;;;10.93;;
56242;SDS011;42155;53.096;23.226;2024-02-14T07:50:56;18.52;;;9.02;;
56242;SDS011;42155;53.096;23.226;2024-02-14T07:52:56;21.95;;;9.75;;
56242;SDS011;42155;53.096;23.226;2024-02-14T07:54:57;16.55;;;7.90;;
56242;SDS011;42155;53.096;23.226;2024-02-14T07:56:58;19.38;;;7.90;;
56242;SDS011;42155;53.096;23.226;2024-02-14T07:58:58;16.70;;;7.53;;
56242;SDS011;42155;53.096;23.226;2024-02-14T08:00:58;19.30;;;8.25;;
56242;SDS011;42155;53.096;23.226;2024-02-14T08:02:59;20.50;;;8.48;;
56242;SDS011;42155;53.096;23.226;2024-02-14T08:04:59;21.13;;;7.55;;
56242;SDS011;42155;53.096;23.226;2024-02-14T08:07:00;19.80;;;8.88;;
56242;SDS011;42155;53.096;23.226;2024-02-14T08:09:00;17.33;;;8.25;;
56242;SDS011;42155;53.096;23.226;2024-02-14T08:11:01;17.63;;;8.35;;
56242;SDS011;42155;53.096;23.226;2024-02-14T08:13:01;16.00;;;7.85;;
56242;SDS011;42155;53.096;23.226;2024-02-14T08:15:02;20.77;;;9.43;;
56242;SDS011;42155;53.096;23.226;2024-02-14T08:17:02;17.20;;;8.30;;
56242;SDS011;42155;53.096;23.226;2024-02-14T08:19:03;19.48;;;9.05;;
56242;SDS011;42155;53.096;23.226;2024-02-14T08:21:03;19.20;;;8.75;;
56242;SDS011;42155;53.096;23.226;2024-02-14T08:23:04;27.73;;;8.82;;
56242;SDS011;42155;53.096;23.226;2024-02-14T08:25:05;16.83;;;8.25;;
56242;SDS011;42155;53.096;23.226;2024-02-14T08:27:06;17.88;;;9.13;;
56242;SDS011;42155;53.096;23.226;2024-02-14T08:29:06;17.83;;;9.60;;
56242;SDS011;42155;53.096;23.226;2024-02-14T08:31:10;20.83;;;9.10;;
56242;SDS011;42155;53.096;23.226;2024-02-14T08:33:11;18.48;;;9.07;;
56242;SDS011;42155;53.096;23.226;2024-02-14T08:35:11;18.60;;;8.80;;
56242;SDS011;42155;53.096;23.226;2024-02-14T08:37:11;22.67;;;8.68;;
56242;SDS011;42155;53.096;23.226;2024-02-14T08:39:12;18.48;;;9.32;;
56242;SDS011;42155;53.096;23.226;2024-02-14T08:41:14;20.20;;;8.88;;
56242;SDS011;42155;53.096;23.226;2024-02-14T08:43:14;23.20;;;9.90;;
56242;SDS011;42155;53.096;23.226;2024-02-14T08:45:15;20.85;;;9.75;;
56242;SDS011;42155;53.096;23.226;2024-02-14T08:47:15;19.98;;;9.20;;
56242;SDS011;42155;53.096;23.226;2024-02-14T08:49:16;17.83;;;8.20;;
56242;SDS011;42155;53.096;23.226;2024-02-14T08:51:16;20.33;;;9.30;;
56242;SDS011;42155;53.096;23.226;2024-02-14T08:53:16;17.58;;;8.48;;
56242;SDS011;42155;53.096;23.226;2024-02-14T08:55:17;16.10;;;7.80;;
56242;SDS011;42155;53.096;23.226;2024-02-14T08:57:17;18.30;;;8.00;;
56242;SDS011;42155;53.096;23.226;2024-02-14T08:59:17;15.65;;;7.28;;
56242;SDS011;42155;53.096;23.226;2024-02-14T09:01:18;17.45;;;7.97;;
56242;SDS011;42155;53.096;23.226;2024-02-14T09:03:18;15.23;;;7.20;;
56242;SDS011;42155;53.096;23.226;2024-02-14T09:05:19;17.08;;;7.30;;
56242;SDS011;42155;53.096;23.226;2024-02-14T09:07:20;18.80;;;8.20;;
56242;SDS011;42155;53.096;23.226;2024-02-14T09:09:20;19.45;;;7.22;;
56242;SDS011;42155;53.096;23.226;2024-02-14T09:11:21;15.90;;;7.13;;
56242;SDS011;42155;53.096;23.226;2024-02-14T09:13:21;18.33;;;8.07;;
56242;SDS011;42155;53.096;23.226;2024-02-14T09:15:22;15.70;;;7.20;;
56242;SDS011;42155;53.096;23.226;2024-02-14T09:17:22;18.10;;;7.43;;
56242;SDS011;42155;53.096;23.226;2024-02-14T09:19:23;17.60;;;8.18;;
56242;SDS011;42155;53.096;23.226;2024-02-14T09:21:24;14.07;;;7.15;;
56242;SDS011;42155;53.096;23.226;2024-02-14T09:23:24;14.75;;;6.85;;
56242;SDS011;42155;53.096;23.226;2024-02-14T09:25:27;20.13;;;7.50;;
56242;SDS011;42155;53.096;23.226;2024-02-14T09:27:28;13.07;;;6.72;;
56242;SDS011;42155;53.096;23.226;2024-02-14T09:29:28;15.43;;;7.18;;
56242;SDS011;42155;53.096;23.226;2024-02-14T09:31:29;17.20;;;6.95;;
56242;SDS011;42155;53.096;23.226;2024-02-14T09:33:29;16.48;;;7.30;;
56242;SDS011;42155;53.096;23.226;2024-02-14T09:35:30;14.50;;;6.68;;
56242;SDS011;42155;53.096;23.226;2024-02-14T09:37:31;16.60;;;6.82;;
56242;SDS011;42155;53.096;23.226;2024-02-14T09:39:31;16.33;;;6.45;;
56242;SDS011;42155;53.096;23.226;2024-02-14T09:41:40;15.18;;;6.65;;
56242;SDS011;42155;53.096;23.226;2024-02-14T09:43:45;13.57;;;5.43;;
56242;SDS011;42155;53.096;23.226;2024-02-14T09:45:45;12.57;;;5.63;;
56242;SDS011;42155;53.096;23.226;2024-02-14T09:47:46;15.80;;;5.70;;
56242;SDS011;42155;53.096;23.226;2024-02-14T09:49:48;15.38;;;5.97;;
56242;SDS011;42155;53.096;23.226;2024-02-14T09:51:51;10.55;;;5.68;;
56242;SDS011;42155;53.096;23.226;2024-02-14T09:53:54;18.27;;;6.35;;
56242;SDS011;42155;53.096;23.226;2024-02-14T09:55:54;10.65;;;5.10;;
56242;SDS011;42155;53.096;23.226;2024-02-14T09:57:56;10.95;;;4.10;;
56242;SDS011;42155;53.096;23.226;2024-02-14T09:59:58;9.38;;;4.40;;
56242;SDS011;42155;53.096;23.226;2024-02-14T10:02:00;11.23;;;4.70;;
56242;SDS011;42155;53.096;23.226;2024-02-14T10:04:00;17.38;;;3.42;;
56242;SDS011;42155;53.096;23.226;2024-02-14T10:06:01;10.77;;;3.75;;
56242;SDS011;42155;53.096;23.226;2024-02-14T10:08:01;20.88;;;3.88;;
56242;SDS011;42155;53.096;23.226;2024-02-14T10:10:06;8.73;;;3.08;;
56242;SDS011;42155;53.096;23.226;2024-02-14T10:12:07;6.75;;;3.10;;
56242;SDS011;42155;53.096;23.226;2024-02-14T10:14:09;5.18;;;2.53;;
56242;SDS011;42155;53.096;23.226;2024-02-14T10:16:09;10.57;;;2.78;;
56242;SDS011;42155;53.096;23.226;2024-02-14T10:18:10;6.95;;;3.08;;
56242;SDS011;42155;53.096;23.226;2024-02-14T10:20:11;7.40;;;3.03;;
56242;SDS011;42155;53.096;23.226;2024-02-14T10:22:17;7.18;;;2.95;;
56242;SDS011;42155;53.096;23.226;2024-02-14T10:24:17;8.20;;;3.08;;
56242;SDS011;42155;53.096;23.226;2024-02-14T10:26:18;8.88;;;3.33;;
56242;SDS011;42155;53.096;23.226;2024-02-14T10:28:20;8.40;;;3.42;;
56242;SDS011;42155;53.096;23.226;2024-02-14T10:30:21;12.52;;;3.40;;
56242;SDS011;42155;53.096;23.226;2024-02-14T10:32:22;8.98;;;3.35;;
56242;SDS011;42155;53.096;23.226;2024-02-14T10:34:25;9.93;;;3.45;;
56242;SDS011;42155;53.096;23.226;2024-02-14T10:36:26;8.13;;;3.33;;
56242;SDS011;42155;53.096;23.226;2024-02-14T10:38:27;8.98;;;3.55;;
56242;SDS011;42155;53.096;23.226;2024-02-14T10:40:32;10.65;;;4.63;;
56242;SDS011;42155;53.096;23.226;2024-02-14T10:42:33;8.55;;;3.55;;
56242;SDS011;42155;53.096;23.226;2024-02-14T10:44:34;5.45;;;3.03;;
56242;SDS011;42155;53.096;23.226;2024-02-14T10:46:36;6.95;;;3.33;;
56242;SDS011;42155;53.096;23.226;2024-02-14T10:48:37;8.23;;;3.40;;
56242;SDS011;42155;53.096;23.226;2024-02-14T10:50:41;9.30;;;3.42;;
56242;SDS011;42155;53.096;23.226;2024-02-14T10:52:42;7.95;;;3.22;;
56242;SDS011;42155;53.096;23.226;2024-02-14T10:54:47;7.72;;;3.17;;
56242;SDS011;42155;53.096;23.226;2024-02-14T10:58:58;6.32;;;2.63;;
56242;SDS011;42155;53.096;23.226;2024-02-14T11:00:59;8.43;;;3.33;;
56242;SDS011;42155;53.096;23.226;2024-02-14T11:03:00;13.25;;;3.78;;
56242;SDS011;42155;53.096;23.226;2024-02-14T11:05:01;6.80;;;2.88;;
56242;SDS011;42155;53.096;23.226;2024-02-14T11:07:03;7.22;;;2.70;;
56242;SDS011;42155;53.096;23.226;2024-02-14T11:09:11;8.10;;;2.40;;
56242;SDS011;42155;53.096;23.226;2024-02-14T11:11:12;6.68;;;2.75;;
56242;SDS011;42155;53.096;23.226;2024-02-14T11:13:13;6.07;;;2.53;;
56242;SDS011;42155;53.096;23.226;2024-02-14T11:15:23;10.85;;;2.70;;
56242;SDS011;42155;53.096;23.226;2024-02-14T11:17:24;5.82;;;2.67;;
56242;SDS011;42155;53.096;23.226;2024-02-14T11:19:30;6.97;;;2.20;;
56242;SDS011;42155;53.096;23.226;2024-02-14T11:21:31;7.05;;;2.60;;
56242;SDS011;42155;53.096;23.226;2024-02-14T11:23:35;5.82;;;2.40;;
56242;SDS011;42155;53.096;23.226;2024-02-14T11:25:35;8.15;;;3.05;;
56242;SDS011;42155;53.096;23.226;2024-02-14T11:27:42;6.18;;;2.65;;
56242;SDS011;42155;53.096;23.226;2024-02-14T11:29:51;6.38;;;2.53;;
56242;SDS011;42155;53.096;23.226;2024-02-14T11:31:59;7.60;;;2.53;;
56242;SDS011;42155;53.096;23.226;2024-02-14T11:34:03;13.52;;;2.70;;
56242;SDS011;42155;53.096;23.226;2024-02-14T11:36:07;6.72;;;2.28;;
56242;SDS011;42155;53.096;23.226;2024-02-14T11:38:08;4.72;;;2.45;;
56242;SDS011;42155;53.096;23.226;2024-02-14T11:40:10;6.35;;;2.30;;
56242;SDS011;42155;53.096;23.226;2024-02-14T11:42:10;8.52;;;2.50;;
56242;SDS011;42155;53.096;23.226;2024-02-14T11:44:12;7.57;;;2.35;;
56242;SDS011;42155;53.096;23.226;2024-02-14T11:46:12;5.68;;;2.17;;
56242;SDS011;42155;53.096;23.226;2024-02-14T11:48:13;5.55;;;2.25;;